createdAt,value
2023-04-04T00:00:12.353Z,6.63
2023-04-04T00:05:14.353Z,9.15
2023-04-04T00:10:16.430Z,8.75
2023-04-04T00:15:18.474Z,6.38
2023-04-04T00:20:20.521Z,9.82
2023-04-04T00:25:22.549Z,7.35
2023-04-04T00:30:24.590Z,7.68
2023-04-04T00:35:26.775Z,8.05
2023-04-04T00:40:28.962Z,7.10
2023-04-04T00:45:31.419Z,9.85
2023-04-04T00:50:33.706Z,9.15
2023-04-04T00:55:39.483Z,8.48
2023-04-04T01:00:41.707Z,7.35
2023-04-04T01:05:43.853Z,9.23
2023-04-04T01:10:46.456Z,7.90
2023-04-04T01:15:48.882Z,7.60
2023-04-04T01:21:00.298Z,7.60
2023-04-04T01:26:04.034Z,9.13
2023-04-04T01:31:12.661Z,6.60
2023-04-04T01:36:41.757Z,8.48
2023-04-04T01:41:48.378Z,9.20
2023-04-04T01:46:55.046Z,8.00
2023-04-04T01:51:57.573Z,8.23
2023-04-04T01:56:59.709Z,8.65
2023-04-04T02:02:01.952Z,10.00
2023-04-04T02:07:04.521Z,13.35
2023-04-04T02:12:08.288Z,9.45
2023-04-04T02:17:10.824Z,10.13
2023-04-04T02:22:13.025Z,8.63
2023-04-04T02:27:15.248Z,9.43
2023-04-04T02:32:18.309Z,10.73
2023-04-04T02:37:20.558Z,10.40
2023-04-04T02:42:26.600Z,9.90
2023-04-04T02:47:30.039Z,10.02
2023-04-04T02:52:32.997Z,9.90
2023-04-04T02:57:41.721Z,7.80
2023-04-04T03:02:44.161Z,7.70
2023-04-04T03:07:46.858Z,9.55
2023-04-04T03:12:49.077Z,10.88
2023-04-04T03:17:52.761Z,14.20
2023-04-04T03:22:58.510Z,10.40
2023-04-04T03:28:09.775Z,12.88
2023-04-04T03:33:12.250Z,9.05
2023-04-04T03:38:14.412Z,8.10
2023-04-04T03:43:16.536Z,9.50
2023-04-04T03:48:18.763Z,11.23
2023-04-04T03:53:20.836Z,9.57
2023-04-04T03:58:23.520Z,10.48
2023-04-04T04:03:26.990Z,12.23
2023-04-04T04:08:30.287Z,7.53
2023-04-04T04:13:32.555Z,10.93
2023-04-04T04:18:34.625Z,12.88
2023-04-04T04:23:38.368Z,8.68
2023-04-04T04:28:40.486Z,8.85
2023-04-04T04:33:48.734Z,9.77
2023-04-04T04:38:53.070Z,11.95
2023-04-04T04:43:56.096Z,9.80
2023-04-04T04:49:01.052Z,10.80
2023-04-04T04:54:06.038Z,13.95
2023-04-04T04:59:09.043Z,9.82
2023-04-04T05:04:17.498Z,16.38
2023-04-04T05:09:31.896Z,12.23
2023-04-04T05:14:34.465Z,10.45
2023-04-04T05:19:36.628Z,12.80
2023-04-04T05:24:40.356Z,12.90
2023-04-04T05:29:42.656Z,12.93
2023-04-04T05:34:44.967Z,13.88
2023-04-04T05:39:51.839Z,11.52
2023-04-04T05:44:54.285Z,15.10
2023-04-04T05:49:57.832Z,14.35
2023-04-04T05:55:00.293Z,14.75
2023-04-04T06:00:06.055Z,20.23
2023-04-04T06:05:16.888Z,13.02
2023-04-04T06:10:19.656Z,13.15
2023-04-04T06:15:21.896Z,15.80
2023-04-04T06:20:24.166Z,13.63
2023-04-04T06:25:28.513Z,13.60
2023-04-04T06:30:38.181Z,13.27
2023-04-04T06:35:42.438Z,14.25
2023-04-04T06:40:46.400Z,12.00
2023-04-04T06:45:49.217Z,9.60
2023-04-04T06:50:54.852Z,10.20
2023-04-04T06:55:57.421Z,11.10
2023-04-04T07:00:59.844Z,13.63
2023-04-04T07:06:05.458Z,9.85
2023-04-04T07:11:08.075Z,12.85
2023-04-04T07:16:11.695Z,10.70
2023-04-04T07:21:13.787Z,13.80
2023-04-04T07:26:18.736Z,9.73
2023-04-04T07:31:21.260Z,11.50
2023-04-04T07:36:23.337Z,10.45
2023-04-04T07:41:26.241Z,10.55
2023-04-04T07:46:28.274Z,14.10
2023-04-04T07:51:31.305Z,8.93
2023-04-04T07:56:33.410Z,9.05
2023-04-04T08:01:35.767Z,14.27
2023-04-04T08:06:38.809Z,14.65
2023-04-04T08:11:41.139Z,10.65
2023-04-04T08:16:43.278Z,9.55
2023-04-04T08:21:46.168Z,10.32
2023-04-04T08:26:51.844Z,7.18
2023-04-04T08:32:05.116Z,9.02
2023-04-04T08:37:08.241Z,7.95
2023-04-04T08:42:10.747Z,8.13
2023-04-04T08:47:13.452Z,7.82
2023-04-04T08:52:19.526Z,9.23
2023-04-04T08:57:22.248Z,6.72
2023-04-04T09:02:36.994Z,5.78
2023-04-04T09:07:39.941Z,6.10
2023-04-04T09:12:45.508Z,8.07
2023-04-04T09:17:47.615Z,6.43
2023-04-04T09:22:49.845Z,6.45
2023-04-04T09:27:56.032Z,6.40
2023-04-04T09:33:07.344Z,6.20
2023-04-04T09:38:09.703Z,8.43
2023-04-04T09:43:13.238Z,8.73
2023-04-04T09:48:27.208Z,7.53
2023-04-04T09:53:29.524Z,7.15
2023-04-04T09:58:36.309Z,7.00
2023-04-04T10:03:39.760Z,9.48
2023-04-04T10:08:43.168Z,8.93
2023-04-04T10:13:46.711Z,7.50
2023-04-04T10:18:49.064Z,8.40
2023-04-04T10:23:52.933Z,5.88
2023-04-04T10:28:56.182Z,9.95
2023-04-04T10:34:12.637Z,7.50
2023-04-04T10:39:26.035Z,6.78
2023-04-04T10:44:28.038Z,7.57
2023-04-04T10:49:30.984Z,12.48
2023-04-04T10:54:33.809Z,5.22
2023-04-04T11:00:07.623Z,8.40
2023-04-04T11:05:17.305Z,11.70
2023-04-04T11:10:25.486Z,7.25
2023-04-04T11:15:27.564Z,7.97
2023-04-04T11:20:31.070Z,6.82
2023-04-04T11:25:38.173Z,7.18
2023-04-04T11:30:48.954Z,5.43
2023-04-04T11:35:51.208Z,6.50
2023-04-04T11:40:54.827Z,6.85
2023-04-04T11:46:08.200Z,4.95
2023-04-04T11:51:11.591Z,6.57
2023-04-04T11:56:16.233Z,7.97
2023-04-04T12:01:20.428Z,6.47
2023-04-04T12:06:22.511Z,5.63
2023-04-04T12:11:26.435Z,5.50
2023-04-04T12:16:29.121Z,4.85
2023-04-04T12:21:33.124Z,8.52
2023-04-04T12:26:40.835Z,10.02
2023-04-04T12:31:44.955Z,6.90
2023-04-04T12:36:56.021Z,5.50
2023-04-04T12:42:04.524Z,6.28
2023-04-04T12:47:08.572Z,6.07
2023-04-04T12:52:22.329Z,7.20
2023-04-04T12:57:27.466Z,8.13
2023-04-04T13:02:29.693Z,6.43
2023-04-04T13:07:38.987Z,6.93
2023-04-04T13:13:01.085Z,7.43
2023-04-04T13:18:14.980Z,6.32
2023-04-04T13:23:17.274Z,7.20
2023-04-04T13:28:19.417Z,4.80
2023-04-04T13:33:22.471Z,7.82
2023-04-04T13:38:26.974Z,5.70
2023-04-04T13:43:29.378Z,6.53
2023-04-04T13:48:31.528Z,6.75
2023-04-04T13:53:33.585Z,6.63
2023-04-04T13:58:35.578Z,7.25
2023-04-04T14:03:37.671Z,6.97
2023-04-04T14:08:40.272Z,5.25
2023-04-04T14:13:42.456Z,8.23
2023-04-04T14:18:44.672Z,7.22
2023-04-04T14:23:46.845Z,5.85
2023-04-04T14:28:48.947Z,5.53
2023-04-04T14:33:51.060Z,6.97
2023-04-04T14:38:53.108Z,8.80
2023-04-04T14:43:55.178Z,6.82
2023-04-04T14:48:57.224Z,6.03
2023-04-04T14:53:59.663Z,8.07
2023-04-04T14:59:05.144Z,9.90
2023-04-04T15:04:07.254Z,9.50
2023-04-04T15:09:09.676Z,8.10
2023-04-04T15:14:11.731Z,7.93
2023-04-04T15:19:13.826Z,7.03
2023-04-04T15:24:15.919Z,7.50
2023-04-04T15:29:18.020Z,6.38
2023-04-04T15:34:20.283Z,9.75
2023-04-04T15:39:22.543Z,6.55
2023-04-04T15:44:24.670Z,8.15
2023-04-04T15:49:27.097Z,6.95
2023-04-04T15:54:31.121Z,7.80
2023-04-04T15:59:33.504Z,6.85
2023-04-04T16:04:35.897Z,9.55
2023-04-04T16:09:38.434Z,8.77
2023-04-04T16:14:40.565Z,7.13
2023-04-04T16:19:42.609Z,11.23
2023-04-04T16:24:44.662Z,9.38
2023-04-04T16:29:47.089Z,7.93
2023-04-04T16:34:49.169Z,7.70
2023-04-04T16:39:51.925Z,7.50
2023-04-04T16:44:53.888Z,9.23
2023-04-04T16:49:56.116Z,9.68
2023-04-04T16:54:58.534Z,10.80
2023-04-04T17:00:06.536Z,10.52
2023-04-04T17:05:08.707Z,10.77
2023-04-04T17:10:12.041Z,10.82
2023-04-04T17:15:16.256Z,8.63
2023-04-04T17:20:19.477Z,9.80
2023-04-04T17:25:22.348Z,10.85
2023-04-04T17:30:27.153Z,9.43
2023-04-04T17:35:29.525Z,11.57
2023-04-04T17:40:31.644Z,8.50
2023-04-04T17:45:33.908Z,9.68
2023-04-04T17:50:36.167Z,10.65
2023-04-04T17:55:40.070Z,7.82
2023-04-04T18:00:42.498Z,9.63
2023-04-04T18:05:44.692Z,14.85
2023-04-04T18:10:46.680Z,12.43
2023-04-04T18:15:50.141Z,12.27
2023-04-04T18:20:54.367Z,11.38
2023-04-04T18:25:56.682Z,12.32
2023-04-04T18:30:59.600Z,12.30
2023-04-04T18:36:03.360Z,13.40
2023-04-04T18:41:05.741Z,11.73
2023-04-04T18:46:07.815Z,12.57
2023-04-04T18:51:09.845Z,18.52
2023-04-04T18:56:11.866Z,12.30
2023-04-04T19:01:16.371Z,12.48
2023-04-04T19:06:18.480Z,11.98
2023-04-04T19:11:20.570Z,11.02
2023-04-04T19:16:24.063Z,11.15
2023-04-04T19:21:26.315Z,13.35
2023-04-04T19:26:28.540Z,14.13
2023-04-04T19:31:32.960Z,13.77
2023-04-04T19:36:37.452Z,12.45
2023-04-04T19:41:40.916Z,13.20
2023-04-04T19:46:43.003Z,14.20
2023-04-04T19:51:52.429Z,13.57
2023-04-04T19:57:07.817Z,14.93
2023-04-04T20:02:39.196Z,11.80
2023-04-04T20:07:41.450Z,17.80
2023-04-04T20:12:43.514Z,14.60
2023-04-04T20:17:45.577Z,13.32
2023-04-04T20:22:47.622Z,13.27
2023-04-04T20:27:49.797Z,14.20
2023-04-04T20:32:52.017Z,13.77
2023-04-04T20:37:54.237Z,14.35
2023-04-04T20:42:56.296Z,11.80
2023-04-04T20:48:00.546Z,13.75
2023-04-04T20:53:04.814Z,15.38
2023-04-04T20:58:09.109Z,13.50
2023-04-04T21:03:29.896Z,12.40
2023-04-04T21:08:41.773Z,15.40
2023-04-04T21:13:44.510Z,15.77
2023-04-04T21:18:47.074Z,14.60
2023-04-04T21:23:56.708Z,15.93
2023-04-04T21:29:04.942Z,14.70
2023-04-04T21:34:12.735Z,15.93
2023-04-04T21:39:22.705Z,19.90
2023-04-04T21:44:25.491Z,17.30
2023-04-04T21:49:28.304Z,14.52
2023-04-04T21:54:30.344Z,20.80
2023-04-04T21:59:32.480Z,15.00
2023-04-04T22:04:34.594Z,15.82
2023-04-04T22:09:40.398Z,15.57
2023-04-04T22:14:43.736Z,14.82
2023-04-04T22:19:46.736Z,18.75
2023-04-04T22:24:50.963Z,18.88
2023-04-04T22:29:53.142Z,14.93
2023-04-04T22:34:55.284Z,15.80
2023-04-04T22:39:57.310Z,16.58
2023-04-04T22:44:59.329Z,15.52
2023-04-04T22:50:06.143Z,15.15
2023-04-04T22:55:08.358Z,18.15
2023-04-04T23:00:11.902Z,17.50
2023-04-04T23:05:16.054Z,15.55
2023-04-04T23:10:18.501Z,16.48
2023-04-04T23:15:20.568Z,20.67
2023-04-04T23:20:23.949Z,18.48
2023-04-04T23:25:26.463Z,20.83
2023-04-04T23:30:28.927Z,21.88
2023-04-04T23:35:31.072Z,18.77
2023-04-04T23:40:33.069Z,17.30
2023-04-04T23:45:37.240Z,16.98
2023-04-04T23:50:41.353Z,17.08
2023-04-04T23:55:43.514Z,18.65
